createdAt,value
2019-03-15T11:48:04.095Z,29.99
2019-03-15T11:50:31.248Z,25.28
2019-03-15T11:53:00.570Z,23.24
2019-03-15T11:55:30.197Z,22.15
2019-03-15T11:58:00.112Z,21.52
2019-03-15T12:00:29.464Z,21.10
2019-03-15T12:02:59.399Z,20.85
2019-03-15T12:05:28.676Z,19.80
2019-03-15T12:07:58.712Z,17.56
2019-03-15T12:10:28.840Z,15.73
2019-03-15T12:12:58.317Z,15.16
2019-03-15T12:15:27.816Z,15.02
2019-03-15T12:17:57.263Z,15.03
2019-03-15T12:20:26.752Z,14.88
2019-03-15T12:22:56.129Z,14.80
2019-03-15T12:25:25.427Z,14.89
2019-03-15T12:27:55.217Z,14.85
2019-03-15T12:30:24.553Z,15.01
2019-03-15T12:32:53.872Z,14.77
2019-03-15T12:35:23.219Z,14.87
2019-03-15T12:37:54.348Z,15.09
2019-03-15T12:40:23.716Z,15.10
2019-03-15T12:42:53.036Z,15.08
2019-03-15T12:45:22.400Z,15.28
2019-03-15T12:47:51.778Z,15.40
2019-03-15T12:50:21.142Z,15.48
2019-03-15T12:52:51.966Z,15.53
2019-03-15T12:55:21.371Z,15.32
2019-03-15T12:57:50.813Z,15.55
2019-03-15T13:00:20.840Z,15.53
2019-03-15T13:02:50.411Z,15.60
2019-03-15T13:05:19.664Z,15.64
2019-03-15T13:07:49.117Z,15.53
2019-03-15T13:10:18.510Z,15.76
2019-03-15T13:12:48.694Z,15.80
2019-03-15T13:15:18.105Z,15.52
2019-03-15T13:17:47.493Z,15.55
2019-03-15T13:20:16.897Z,15.78
2019-03-15T13:22:46.231Z,15.77
2019-03-15T13:25:15.680Z,15.58
2019-03-15T13:27:45.000Z,15.88
2019-03-15T13:30:14.405Z,15.69
2019-03-15T13:32:44.181Z,15.92
2019-03-15T13:35:14.421Z,15.84
2019-03-15T13:37:43.678Z,15.82
2019-03-15T13:40:13.098Z,16.01
2019-03-15T13:42:44.946Z,15.86
2019-03-15T13:45:15.049Z,15.91
2019-03-15T13:47:44.416Z,16.23
2019-03-15T13:50:13.897Z,16.11
2019-03-15T13:52:50.059Z,16.18
2019-03-15T13:55:19.984Z,16.21
2019-03-15T13:57:49.303Z,16.27
2019-03-15T14:00:18.712Z,16.09
2019-03-15T14:02:48.611Z,16.10
2019-03-15T14:05:17.973Z,16.22
2019-03-15T14:07:48.087Z,15.94
2019-03-15T14:10:17.435Z,15.99
2019-03-15T14:12:46.784Z,15.91
2019-03-15T14:15:16.239Z,15.93
2019-03-15T14:17:45.503Z,15.64
2019-03-15T14:20:15.042Z,15.61
2019-03-15T14:22:44.296Z,15.76
2019-03-15T14:25:13.750Z,15.87
2019-03-15T14:27:43.762Z,15.84
2019-03-15T14:30:13.197Z,15.89
2019-03-15T14:32:42.617Z,15.83
2019-03-15T14:35:12.613Z,15.87
2019-03-15T14:37:42.032Z,15.83
2019-03-15T14:40:11.317Z,15.76
2019-03-15T14:42:41.030Z,15.92
2019-03-15T14:45:10.450Z,16.05
2019-03-15T14:47:40.408Z,15.84
2019-03-15T14:50:09.848Z,15.87
2019-03-15T14:52:39.195Z,15.65
2019-03-15T14:55:08.652Z,15.90
2019-03-15T14:57:51.082Z,15.94
2019-03-15T15:00:11.030Z,15.62
2019-03-15T15:02:39.113Z,15.72
2019-03-15T15:05:10.308Z,15.97
2019-03-15T15:07:39.926Z,15.82
2019-03-15T15:10:11.295Z,15.94
2019-03-15T15:12:40.693Z,15.91
2019-03-15T15:15:12.096Z,15.82
2019-03-15T15:17:41.586Z,15.89
2019-03-15T15:20:11.006Z,15.72
2019-03-15T15:22:40.341Z,16.00
2019-03-15T15:25:10.311Z,15.75
2019-03-15T15:27:39.694Z,15.75
2019-03-15T15:30:09.714Z,15.83
2019-03-15T15:32:39.059Z,15.87
2019-03-15T15:35:08.593Z,15.94
2019-03-15T15:37:38.433Z,15.83
2019-03-15T15:40:09.544Z,15.80
2019-03-15T15:42:40.048Z,15.91
2019-03-15T15:45:10.264Z,16.01
2019-03-15T15:47:39.736Z,16.02
2019-03-15T15:50:09.778Z,15.65
2019-03-15T15:52:39.692Z,15.94
2019-03-15T15:55:09.240Z,15.64
2019-03-15T15:57:39.284Z,15.68
2019-03-15T16:00:10.529Z,15.89
2019-03-15T16:02:39.881Z,15.80
2019-03-15T16:05:09.470Z,15.77
2019-03-15T16:07:38.890Z,15.83
2019-03-15T16:10:09.948Z,15.85
2019-03-15T16:12:40.150Z,15.65
2019-03-15T16:15:10.571Z,15.57
2019-03-15T16:17:39.853Z,15.72
2019-03-15T16:20:09.596Z,15.52
2019-03-15T16:22:39.895Z,15.63
2019-03-15T16:25:09.373Z,15.76
2019-03-15T16:27:38.758Z,15.57
2019-03-15T16:30:10.671Z,15.40
2019-03-15T16:32:40.052Z,15.60
2019-03-15T16:35:11.063Z,15.50
2019-03-15T16:37:40.387Z,15.56
2019-03-15T16:40:09.936Z,15.53
2019-03-15T16:42:40.220Z,15.33
2019-03-15T16:45:15.159Z,15.50
2019-03-15T16:47:42.366Z,15.47
2019-03-15T16:50:12.268Z,15.47
2019-03-15T16:52:41.651Z,15.41
2019-03-15T16:55:11.232Z,15.44
2019-03-15T16:57:40.628Z,15.58
2019-03-15T17:00:11.523Z,15.47
2019-03-15T17:02:40.916Z,15.47
2019-03-15T17:05:10.565Z,15.31
2019-03-15T17:07:40.156Z,15.58
2019-03-15T17:10:10.643Z,15.38
2019-03-15T17:12:40.052Z,15.51
2019-03-15T17:15:11.570Z,15.27
2019-03-15T17:17:40.969Z,15.37
2019-03-15T17:20:11.180Z,15.28
2019-03-15T17:22:40.511Z,15.35
2019-03-15T17:25:10.482Z,15.35
2019-03-15T17:27:39.923Z,15.23
2019-03-15T17:30:11.755Z,15.38
2019-03-15T17:32:41.104Z,15.31
2019-03-15T17:35:11.114Z,15.24
2019-03-15T17:37:40.481Z,15.07
2019-03-15T17:40:11.724Z,15.16
2019-03-15T17:42:41.061Z,15.27
2019-03-15T17:45:10.776Z,15.21
2019-03-15T17:47:41.033Z,15.18
2019-03-15T17:50:13.404Z,15.23
2019-03-15T17:52:42.736Z,15.14
2019-03-15T17:55:13.496Z,15.16
2019-03-15T17:57:45.698Z,15.17
2019-03-15T18:00:23.480Z,15.44
2019-03-15T18:02:52.973Z,15.45
2019-03-15T18:05:22.433Z,15.16
2019-03-15T18:07:51.809Z,14.92
2019-03-15T18:10:21.143Z,14.93
2019-03-15T18:12:50.551Z,14.95
2019-03-15T18:15:19.905Z,14.75
2019-03-15T18:17:49.211Z,14.73
2019-03-15T18:20:18.496Z,14.82
2019-03-15T18:22:47.770Z,14.80
2019-03-15T18:25:17.049Z,14.88
2019-03-15T18:27:46.289Z,14.78
2019-03-15T18:30:15.656Z,14.72
2019-03-15T18:32:44.893Z,14.78
2019-03-15T18:35:14.102Z,14.82
2019-03-15T18:37:43.427Z,14.74
2019-03-15T18:40:12.848Z,14.70
2019-03-15T18:42:42.095Z,14.64
2019-03-15T18:45:13.456Z,14.75
2019-03-15T18:47:43.656Z,14.77
2019-03-15T18:50:17.298Z,14.60
2019-03-15T18:52:46.833Z,14.69
2019-03-15T18:55:17.101Z,14.56
2019-03-15T18:57:46.520Z,14.69
2019-03-15T19:00:18.451Z,14.67
2019-03-15T19:02:47.799Z,14.51
2019-03-15T19:05:17.360Z,14.51
2019-03-15T19:07:46.722Z,14.62
2019-03-15T19:10:16.105Z,14.67
2019-03-15T19:12:45.561Z,14.75
2019-03-15T19:15:15.008Z,14.55
2019-03-15T19:17:44.427Z,14.56
2019-03-15T19:20:13.816Z,14.44
2019-03-15T19:22:43.181Z,14.67
2019-03-15T19:25:12.550Z,14.62
2019-03-15T19:27:42.444Z,14.55
2019-03-15T19:30:12.610Z,14.66
2019-03-15T19:32:41.946Z,14.60
2019-03-15T19:35:11.310Z,14.74
2019-03-15T19:37:41.433Z,14.79
2019-03-15T19:40:12.335Z,14.75
2019-03-15T19:42:44.794Z,14.85
2019-03-15T19:45:12.692Z,14.69
2019-03-15T19:47:42.023Z,14.62
2019-03-15T19:50:13.857Z,14.82
2019-03-15T19:52:43.205Z,14.75
2019-03-15T19:55:12.991Z,14.74
2019-03-15T19:57:42.455Z,14.64
2019-03-15T20:00:14.477Z,14.79
2019-03-15T20:02:43.821Z,14.96
2019-03-15T20:05:13.356Z,15.02
2019-03-15T20:07:42.864Z,14.89
2019-03-15T20:10:16.084Z,14.75
2019-03-15T20:12:43.138Z,14.82
2019-03-15T20:15:12.568Z,14.71
2019-03-15T20:17:41.948Z,14.66
2019-03-15T20:20:11.988Z,14.82
2019-03-15T20:22:41.349Z,14.75
2019-03-15T20:25:12.144Z,14.77
2019-03-15T20:27:42.470Z,14.52
2019-03-15T20:30:21.237Z,14.63
2019-03-15T20:32:44.905Z,14.76
2019-03-15T20:35:14.349Z,14.66
2019-03-15T20:37:43.705Z,14.68
2019-03-15T20:40:13.126Z,14.71
2019-03-15T20:42:42.444Z,14.58
2019-03-15T20:45:13.593Z,14.61
2019-03-15T20:47:43.005Z,14.76
2019-03-15T20:50:12.920Z,14.73
2019-03-15T20:52:42.318Z,14.83
2019-03-15T20:55:11.635Z,14.87
2019-03-15T20:57:41.892Z,14.97
2019-03-15T21:00:13.787Z,14.89
2019-03-15T21:02:43.226Z,14.74
2019-03-15T21:05:12.607Z,14.95
2019-03-15T21:07:43.673Z,15.15
2019-03-15T21:10:11.848Z,14.72
2019-03-15T21:12:41.238Z,14.84
2019-03-15T21:15:11.338Z,14.79
2019-03-15T21:17:41.198Z,14.90
2019-03-15T21:20:11.488Z,14.98
2019-03-15T21:22:40.803Z,14.85
2019-03-15T21:25:10.541Z,14.90
2019-03-15T21:27:52.603Z,15.05
2019-03-15T21:30:13.654Z,14.84
2019-03-15T21:32:43.968Z,14.79
2019-03-15T21:35:13.311Z,14.97
2019-03-15T21:37:42.608Z,14.80
2019-03-15T21:40:15.141Z,14.91
2019-03-15T21:42:44.436Z,15.07
2019-03-15T21:45:13.965Z,14.95
2019-03-15T21:47:44.269Z,15.00
2019-03-15T21:50:13.804Z,14.99
2019-03-15T21:52:43.234Z,15.01
2019-03-15T21:55:12.585Z,14.77
2019-03-15T21:57:43.408Z,14.99
2019-03-15T22:00:14.812Z,14.98
2019-03-15T22:02:44.789Z,14.93
2019-03-15T22:05:14.175Z,14.84
2019-03-15T22:07:43.677Z,14.90
2019-03-15T22:10:13.098Z,14.97
2019-03-15T22:12:43.236Z,14.72
2019-03-15T22:15:12.676Z,14.85
2019-03-15T22:17:42.340Z,14.77
2019-03-15T22:20:12.334Z,14.84
2019-03-15T22:22:42.303Z,14.89
2019-03-15T22:25:11.735Z,14.73
2019-03-15T22:27:41.192Z,14.80
2019-03-15T22:30:10.667Z,14.90
2019-03-15T22:32:40.085Z,14.93
2019-03-15T22:35:10.063Z,14.73
2019-03-15T22:37:39.686Z,14.83
2019-03-15T22:40:09.015Z,14.88
2019-03-15T22:42:38.379Z,14.73
2019-03-15T22:45:07.778Z,14.83
2019-03-15T22:47:37.090Z,14.76
2019-03-15T22:50:06.374Z,14.83
2019-03-15T22:52:35.803Z,14.83
2019-03-15T22:55:05.245Z,14.82
2019-03-15T22:57:34.582Z,14.81
2019-03-15T23:00:04.428Z,15.02
2019-03-15T23:02:33.771Z,14.85
2019-03-15T23:05:03.158Z,14.91
2019-03-15T23:07:32.545Z,14.84
2019-03-15T23:10:02.757Z,14.64
2019-03-15T23:12:32.428Z,14.69
2019-03-15T23:15:01.779Z,14.63
2019-03-15T23:17:32.071Z,14.59
2019-03-15T23:20:01.436Z,14.72
2019-03-15T23:22:30.845Z,14.57
2019-03-15T23:25:00.488Z,14.61
2019-03-15T23:27:29.876Z,14.56
2019-03-15T23:29:59.318Z,14.61
2019-03-15T23:32:28.699Z,14.46
2019-03-15T23:34:58.790Z,14.61
2019-03-15T23:37:28.115Z,14.79
2019-03-15T23:39:57.484Z,14.50
2019-03-15T23:42:26.833Z,14.57
2019-03-15T23:44:56.167Z,14.49
2019-03-15T23:47:25.524Z,14.62
2019-03-15T23:49:54.921Z,14.58
2019-03-15T23:52:24.304Z,14.60
2019-03-15T23:54:53.591Z,14.58
2019-03-15T23:57:22.920Z,14.73
2019-03-15T23:59:52.198Z,14.59
